createdAt,value
2019-05-14T00:01:11.961Z,11.00
2019-05-14T00:03:41.757Z,11.00
2019-05-14T00:06:11.578Z,11.00
2019-05-14T00:08:41.895Z,10.90
2019-05-14T00:11:13.053Z,10.90
2019-05-14T00:13:42.576Z,10.80
2019-05-14T00:16:12.134Z,10.80
2019-05-14T00:18:42.093Z,10.80
2019-05-14T00:21:12.207Z,10.70
2019-05-14T00:23:42.168Z,10.70
2019-05-14T00:26:12.231Z,10.60
2019-05-14T00:28:42.417Z,10.60
2019-05-14T00:31:12.234Z,10.50
2019-05-14T00:33:42.080Z,10.50
2019-05-14T00:36:11.909Z,10.50
2019-05-14T00:38:46.429Z,10.50
2019-05-14T00:41:15.946Z,10.40
2019-05-14T00:43:45.375Z,10.40
2019-05-14T00:46:14.858Z,10.40
2019-05-14T00:48:44.352Z,10.30
2019-05-14T00:51:13.879Z,10.30
2019-05-14T00:53:43.344Z,10.30
2019-05-14T00:56:12.826Z,10.20
2019-05-14T00:58:42.265Z,10.20
2019-05-14T01:01:12.006Z,10.20
2019-05-14T01:03:41.666Z,10.20
2019-05-14T01:06:11.490Z,10.10
2019-05-14T01:08:41.465Z,10.10
2019-05-14T01:11:11.782Z,10.10
2019-05-14T01:13:41.763Z,10.00
2019-05-14T01:16:12.167Z,10.00
2019-05-14T01:18:41.797Z,10.00
2019-05-14T01:21:11.815Z,10.00
2019-05-14T01:23:41.919Z,9.90
2019-05-14T01:26:11.680Z,9.90
2019-05-14T01:28:41.657Z,9.90
2019-05-14T01:31:12.426Z,9.80
2019-05-14T01:33:42.469Z,9.80
2019-05-14T01:36:12.402Z,9.70
2019-05-14T01:38:42.058Z,9.70
2019-05-14T01:41:11.908Z,9.70
2019-05-14T01:43:42.069Z,9.60
2019-05-14T01:46:13.082Z,9.60
2019-05-14T01:48:42.738Z,9.60
2019-05-14T01:51:12.237Z,9.60
2019-05-14T01:53:41.910Z,9.50
2019-05-14T01:56:12.037Z,9.50
2019-05-14T01:58:41.921Z,9.50
2019-05-14T02:01:12.031Z,9.50
2019-05-14T02:03:41.618Z,9.40
2019-05-14T02:06:11.923Z,9.40
2019-05-14T02:08:41.569Z,9.40
2019-05-14T02:11:12.066Z,9.40
2019-05-14T02:13:41.742Z,9.30
2019-05-14T02:16:13.094Z,9.30
2019-05-14T02:18:42.485Z,9.30
2019-05-14T02:21:11.981Z,9.30
2019-05-14T02:23:42.053Z,9.20
2019-05-14T02:26:11.839Z,9.20
2019-05-14T02:28:42.051Z,9.20
2019-05-14T02:31:11.662Z,9.20
2019-05-14T02:33:41.162Z,9.10
2019-05-14T02:36:10.783Z,9.10
2019-05-14T02:38:40.323Z,9.10
2019-05-14T02:41:10.142Z,9.00
2019-05-14T02:43:40.836Z,9.00
2019-05-14T02:46:16.804Z,9.00
2019-05-14T02:48:41.839Z,8.90
2019-05-14T02:51:11.303Z,8.90
2019-05-14T02:53:40.757Z,8.90
2019-05-14T02:56:10.651Z,8.80
2019-05-14T02:58:40.379Z,8.80
2019-05-14T03:01:09.844Z,8.80
2019-05-14T03:03:40.406Z,8.70
2019-05-14T03:06:10.418Z,8.70
2019-05-14T03:08:40.014Z,8.70
2019-05-14T03:11:09.689Z,8.70
2019-05-14T03:13:39.969Z,8.60
2019-05-14T03:16:22.139Z,8.60
2019-05-14T03:18:41.165Z,8.60
2019-05-14T03:21:10.820Z,8.60
2019-05-14T03:23:40.458Z,8.60
2019-05-14T03:26:10.055Z,8.50
2019-05-14T03:28:40.257Z,8.50
2019-05-14T03:31:12.797Z,8.50
2019-05-14T03:33:43.635Z,8.50
2019-05-14T03:36:17.667Z,8.50
2019-05-14T03:38:43.634Z,8.50
2019-05-14T03:41:14.241Z,8.50
2019-05-14T03:43:43.982Z,8.40
2019-05-14T03:46:13.581Z,8.40
2019-05-14T03:48:43.215Z,8.40
2019-05-14T03:51:12.904Z,8.40
2019-05-14T03:53:57.045Z,8.40
2019-05-14T03:56:14.043Z,8.40
2019-05-14T03:58:43.665Z,8.40
2019-05-14T04:01:14.058Z,8.40
2019-05-14T04:03:43.729Z,8.40
2019-05-14T04:06:13.263Z,8.40
2019-05-14T04:08:44.348Z,8.40
2019-05-14T04:11:20.230Z,8.30
2019-05-14T04:13:52.232Z,8.30
2019-05-14T04:16:24.842Z,8.30
2019-05-14T04:18:59.458Z,8.30
2019-05-14T04:21:30.315Z,8.30
2019-05-14T04:24:03.888Z,8.30
2019-05-14T04:26:53.340Z,8.30
2019-05-14T04:29:10.193Z,8.30
2019-05-14T04:31:44.540Z,8.20
2019-05-14T04:34:15.033Z,8.30
2019-05-14T04:36:45.496Z,8.20
2019-05-14T04:39:15.261Z,8.20
2019-05-14T04:41:44.827Z,8.20
2019-05-14T04:44:14.283Z,8.20
2019-05-14T04:46:43.846Z,8.20
2019-05-14T04:49:13.501Z,8.20
2019-05-14T04:51:43.201Z,8.20
2019-05-14T04:54:13.628Z,8.20
2019-05-14T04:56:43.258Z,8.20
2019-05-14T04:59:12.815Z,8.20
2019-05-14T05:01:42.263Z,8.30
2019-05-14T05:04:11.896Z,8.30
2019-05-14T05:06:41.347Z,8.30
2019-05-14T05:09:10.816Z,8.40
2019-05-14T05:11:40.327Z,8.50
2019-05-14T05:14:09.790Z,8.60
2019-05-14T05:16:39.408Z,8.70
2019-05-14T05:19:10.488Z,8.90
2019-05-14T05:21:40.177Z,9.00
2019-05-14T05:24:09.703Z,9.10
2019-05-14T05:26:39.384Z,9.30
2019-05-14T05:29:10.530Z,9.40
2019-05-14T05:31:40.188Z,9.50
2019-05-14T05:34:09.704Z,9.70
2019-05-14T05:36:39.198Z,9.80
2019-05-14T05:39:09.113Z,9.90
2019-05-14T05:41:38.670Z,10.10
2019-05-14T05:44:08.317Z,10.30
2019-05-14T05:46:38.969Z,10.40
2019-05-14T05:49:08.473Z,10.60
2019-05-14T05:51:39.231Z,10.70
2019-05-14T05:54:09.338Z,10.80
2019-05-14T05:56:38.978Z,11.00
2019-05-14T05:59:09.606Z,11.10
2019-05-14T06:01:45.785Z,11.30
2019-05-14T06:04:10.563Z,11.50
2019-05-14T06:06:40.032Z,11.60
2019-05-14T06:09:09.558Z,11.80
2019-05-14T06:11:39.050Z,11.90
2019-05-14T06:14:11.772Z,12.10
2019-05-14T06:16:41.263Z,12.20
2019-05-14T06:19:10.761Z,12.40
2019-05-14T06:21:40.262Z,12.60
2019-05-14T06:24:09.775Z,12.70
2019-05-14T06:26:39.257Z,12.90
2019-05-14T06:29:08.769Z,13.10
2019-05-14T06:31:38.814Z,13.20
2019-05-14T06:34:09.568Z,13.30
2019-05-14T06:36:39.693Z,13.30
2019-05-14T06:39:09.802Z,13.40
2019-05-14T06:41:42.652Z,13.50
2019-05-14T06:44:10.539Z,13.50
2019-05-14T06:46:39.996Z,13.60
2019-05-14T06:49:09.468Z,13.70
2019-05-14T06:51:39.518Z,13.80
2019-05-14T06:54:09.361Z,13.80
2019-05-14T06:56:38.934Z,13.90
2019-05-14T06:59:09.002Z,13.90
2019-05-14T07:01:38.747Z,13.90
2019-05-14T07:04:09.764Z,13.80
2019-05-14T07:06:39.332Z,13.90
2019-05-14T07:09:08.778Z,13.90
2019-05-14T07:11:38.965Z,13.90
2019-05-14T07:14:11.449Z,14.00
2019-05-14T07:16:39.774Z,14.00
2019-05-14T07:19:09.566Z,14.10
2019-05-14T07:21:39.020Z,14.10
2019-05-14T07:24:08.831Z,14.10
2019-05-14T07:26:38.929Z,14.20
2019-05-14T07:29:11.434Z,14.30
2019-05-14T07:31:40.014Z,14.40
2019-05-14T07:34:09.485Z,14.60
2019-05-14T07:36:39.127Z,14.60
2019-05-14T07:39:09.513Z,14.70
2019-05-14T07:41:39.259Z,14.80
2019-05-14T07:44:09.248Z,15.00
2019-05-14T07:46:39.106Z,15.20
2019-05-14T07:49:11.797Z,15.40
2019-05-14T07:51:39.772Z,15.50
2019-05-14T07:54:09.279Z,15.70
2019-05-14T07:56:38.785Z,15.70
2019-05-14T07:59:08.886Z,15.70
2019-05-14T08:01:38.941Z,15.80
2019-05-14T08:04:11.166Z,15.80
2019-05-14T08:06:40.091Z,15.90
2019-05-14T08:09:10.529Z,15.90
2019-05-14T08:11:40.020Z,16.00
2019-05-14T08:14:09.488Z,16.10
2019-05-14T08:16:38.972Z,16.20
2019-05-14T08:19:19.814Z,16.10
2019-05-14T08:21:39.620Z,16.10
2019-05-14T08:24:09.206Z,16.10
2019-05-14T08:26:42.890Z,16.10
2019-05-14T08:29:09.877Z,16.20
2019-05-14T08:31:39.359Z,16.20
2019-05-14T08:34:09.350Z,16.40
2019-05-14T08:36:38.916Z,16.40
2019-05-14T08:39:08.923Z,16.50
2019-05-14T08:41:38.617Z,16.70
2019-05-14T08:44:08.681Z,16.80
2019-05-14T08:46:38.879Z,16.90
2019-05-14T08:49:09.081Z,17.10
2019-05-14T08:51:39.014Z,17.20
2019-05-14T08:54:08.731Z,17.40
2019-05-14T08:56:40.016Z,17.50
2019-05-14T08:59:09.464Z,17.70
2019-05-14T09:01:39.036Z,17.90
2019-05-14T09:04:09.162Z,18.10
2019-05-14T09:06:38.743Z,18.20
2019-05-14T09:09:10.246Z,18.40
2019-05-14T09:11:45.356Z,18.60
2019-05-14T09:14:11.542Z,18.80
2019-05-14T09:16:46.796Z,18.90
2019-05-14T09:19:12.280Z,19.10
2019-05-14T09:21:41.758Z,19.10
2019-05-14T09:24:11.222Z,19.20
2019-05-14T09:26:40.846Z,19.20
2019-05-14T09:29:19.561Z,19.30
2019-05-14T09:31:41.580Z,19.40
2019-05-14T09:34:11.087Z,19.60
2019-05-14T09:36:40.612Z,19.80
2019-05-14T09:39:12.101Z,20.00
2019-05-14T09:41:41.291Z,20.30
2019-05-14T09:44:10.843Z,20.50
2019-05-14T09:46:40.309Z,20.70
2019-05-14T09:49:09.788Z,20.90
2019-05-14T09:51:39.396Z,20.90
2019-05-14T09:54:08.936Z,21.00
2019-05-14T09:56:39.536Z,21.00
2019-05-14T09:59:09.523Z,21.00
2019-05-14T10:01:39.112Z,21.00
2019-05-14T10:04:09.169Z,21.10
2019-05-14T10:06:39.310Z,21.20
2019-05-14T10:09:08.950Z,21.30
2019-05-14T10:11:38.532Z,21.50
2019-05-14T10:14:08.191Z,21.50
2019-05-14T10:16:38.426Z,21.70
2019-05-14T10:19:08.115Z,21.80
2019-05-14T10:21:38.865Z,22.00
2019-05-14T10:24:09.393Z,22.00
2019-05-14T10:26:39.572Z,21.90
2019-05-14T10:29:09.609Z,21.90
2019-05-14T10:31:39.748Z,21.80
2019-05-14T10:34:09.534Z,21.80
2019-05-14T10:36:39.019Z,21.80
2019-05-14T10:39:09.523Z,21.90
2019-05-14T10:41:39.166Z,22.10
2019-05-14T10:44:09.266Z,22.30
2019-05-14T10:46:39.037Z,22.40
2019-05-14T10:49:17.427Z,22.50
2019-05-14T10:51:41.293Z,22.60
2019-05-14T10:54:24.348Z,22.60
2019-05-14T10:56:42.232Z,22.70
2019-05-14T10:59:11.749Z,22.70
2019-05-14T11:01:41.266Z,22.70
2019-05-14T11:04:10.781Z,22.60
2019-05-14T11:06:41.754Z,22.50
2019-05-14T11:09:11.246Z,22.40
2019-05-14T11:11:40.797Z,22.30
2019-05-14T11:14:10.347Z,22.20
2019-05-14T11:16:41.990Z,22.10
2019-05-14T11:19:11.069Z,22.00
2019-05-14T11:21:40.565Z,21.80
2019-05-14T11:24:10.030Z,21.70
2019-05-14T11:26:39.534Z,21.60
2019-05-14T11:29:08.996Z,21.60
2019-05-14T11:31:39.309Z,21.70
2019-05-14T11:34:08.843Z,21.80
2019-05-14T11:36:38.939Z,21.80
2019-05-14T11:39:09.474Z,21.80
2019-05-14T11:41:39.285Z,21.80
2019-05-14T11:44:09.246Z,21.90
2019-05-14T11:46:47.431Z,22.00
2019-05-14T11:49:10.124Z,22.10
2019-05-14T11:51:59.477Z,22.30
2019-05-14T11:54:10.902Z,22.50
2019-05-14T11:56:41.826Z,22.60
2019-05-14T11:59:11.652Z,22.70
2019-05-14T12:01:41.217Z,22.90
2019-05-14T12:04:10.671Z,23.00
2019-05-14T12:06:40.268Z,23.20
2019-05-14T12:09:11.881Z,23.30
2019-05-14T12:11:41.083Z,23.50
2019-05-14T12:14:10.578Z,23.50
2019-05-14T12:16:40.401Z,23.50
2019-05-14T12:19:11.913Z,23.30
2019-05-14T12:21:57.434Z,23.20
2019-05-14T12:24:13.546Z,23.10
2019-05-14T12:26:43.389Z,23.00
2019-05-14T12:29:12.835Z,23.00
2019-05-14T12:31:42.301Z,23.10
2019-05-14T12:34:11.833Z,23.30
2019-05-14T12:36:41.308Z,23.40
2019-05-14T12:39:10.756Z,23.60
2019-05-14T12:41:40.353Z,23.50
2019-05-14T12:44:09.902Z,23.30
2019-05-14T12:46:39.335Z,23.20
2019-05-14T12:49:11.602Z,23.20
2019-05-14T12:51:42.596Z,23.10
2019-05-14T12:54:11.306Z,23.00
2019-05-14T12:56:40.792Z,22.80
2019-05-14T12:59:10.281Z,22.70
2019-05-14T13:01:39.799Z,22.60
2019-05-14T13:04:09.353Z,22.60
2019-05-14T13:06:40.060Z,22.70
2019-05-14T13:09:09.761Z,22.70
2019-05-14T13:11:41.542Z,22.80
2019-05-14T13:14:10.537Z,22.90
2019-05-14T13:16:40.068Z,22.90
2019-05-14T13:19:09.567Z,23.00
2019-05-14T13:21:39.150Z,23.10
2019-05-14T13:24:08.973Z,23.20
2019-05-14T13:26:39.178Z,23.30
2019-05-14T13:29:10.849Z,23.40
2019-05-14T13:31:40.159Z,23.50
2019-05-14T13:34:09.603Z,23.60
2019-05-14T13:36:40.959Z,23.60
2019-05-14T13:39:10.415Z,23.60
2019-05-14T13:41:41.830Z,23.60
2019-05-14T13:44:21.331Z,23.70
2019-05-14T13:46:42.340Z,23.80
2019-05-14T13:49:11.889Z,24.00
2019-05-14T13:51:41.370Z,24.00
2019-05-14T13:54:10.862Z,24.00
2019-05-14T13:56:40.353Z,24.00
2019-05-14T13:59:09.940Z,23.90
2019-05-14T14:01:39.493Z,23.90
2019-05-14T14:04:12.535Z,23.80
2019-05-14T14:06:40.439Z,23.70
2019-05-14T14:09:12.429Z,23.70
2019-05-14T14:11:41.177Z,23.70
2019-05-14T14:14:10.690Z,23.70
2019-05-14T14:16:40.163Z,23.70
2019-05-14T14:19:09.643Z,23.70
2019-05-14T14:21:39.848Z,23.60
2019-05-14T14:24:09.815Z,23.60
2019-05-14T14:26:39.599Z,23.50
2019-05-14T14:29:09.404Z,23.50
2019-05-14T14:31:41.650Z,23.60
2019-05-14T14:34:10.333Z,23.70
2019-05-14T14:36:39.782Z,23.70
2019-05-14T14:39:09.879Z,23.80
2019-05-14T14:41:39.588Z,23.80
2019-05-14T14:44:09.110Z,23.80
2019-05-14T14:46:39.235Z,23.70
2019-05-14T14:49:10.874Z,23.60
2019-05-14T14:51:44.065Z,23.60
2019-05-14T14:54:15.684Z,23.60
2019-05-14T14:56:42.668Z,23.60
2019-05-14T14:59:12.115Z,23.60
2019-05-14T15:01:41.575Z,23.60
2019-05-14T15:04:13.742Z,23.60
2019-05-14T15:06:42.255Z,23.60
2019-05-14T15:09:11.794Z,23.60
2019-05-14T15:11:41.397Z,23.50
2019-05-14T15:14:10.905Z,23.50
2019-05-14T15:16:40.510Z,23.40
2019-05-14T15:19:10.005Z,23.30
2019-05-14T15:21:39.506Z,23.20
2019-05-14T15:24:14.923Z,23.10
2019-05-14T15:26:40.476Z,23.00
2019-05-14T15:29:10.128Z,22.90
2019-05-14T15:31:39.687Z,22.80
2019-05-14T15:34:09.243Z,22.80
2019-05-14T15:36:41.608Z,22.70
2019-05-14T15:39:10.734Z,22.70
2019-05-14T15:41:40.325Z,22.70
2019-05-14T15:44:09.910Z,22.70
2019-05-14T15:46:41.773Z,22.70
2019-05-14T15:49:10.563Z,22.60
2019-05-14T15:51:40.110Z,22.50
2019-05-14T15:54:34.608Z,22.40
2019-05-14T15:56:40.933Z,22.30
2019-05-14T15:59:10.485Z,22.20
2019-05-14T16:01:40.046Z,22.10
2019-05-14T16:04:11.433Z,22.10
2019-05-14T16:06:40.979Z,22.00
2019-05-14T16:09:10.458Z,22.00
2019-05-14T16:11:39.927Z,21.90
2019-05-14T16:14:10.281Z,21.80
2019-05-14T16:16:39.986Z,21.70
2019-05-14T16:19:09.617Z,21.70
2019-05-14T16:21:39.130Z,21.60
2019-05-14T16:24:08.629Z,21.60
2019-05-14T16:26:38.082Z,21.60
2019-05-14T16:29:08.914Z,21.60
2019-05-14T16:31:43.252Z,21.60
2019-05-14T16:34:10.140Z,21.50
2019-05-14T16:36:41.296Z,21.40
2019-05-14T16:39:10.924Z,21.30
2019-05-14T16:41:40.389Z,21.10
2019-05-14T16:44:09.935Z,21.00
2019-05-14T16:46:39.447Z,20.90
2019-05-14T16:49:09.034Z,20.70
2019-05-14T16:51:38.539Z,20.70
2019-05-14T16:54:07.990Z,20.50
2019-05-14T16:56:41.151Z,20.50
2019-05-14T16:59:09.125Z,20.30
2019-05-14T17:01:38.810Z,20.20
2019-05-14T17:04:09.268Z,20.20
2019-05-14T17:06:38.866Z,20.10
2019-05-14T17:09:08.946Z,20.00
2019-05-14T17:11:39.067Z,20.00
2019-05-14T17:14:08.845Z,19.90
2019-05-14T17:16:38.325Z,19.80
2019-05-14T17:19:09.286Z,19.80
2019-05-14T17:21:39.140Z,19.70
2019-05-14T17:24:08.878Z,19.70
2019-05-14T17:26:38.412Z,19.60
2019-05-14T17:29:08.776Z,19.60
2019-05-14T17:31:39.222Z,19.60
2019-05-14T17:34:10.151Z,19.60
2019-05-14T17:36:39.724Z,19.50
2019-05-14T17:39:10.167Z,19.50
2019-05-14T17:41:41.993Z,19.50
2019-05-14T17:44:10.748Z,19.50
2019-05-14T17:46:40.208Z,19.50
2019-05-14T17:49:09.698Z,19.50
2019-05-14T17:51:39.293Z,19.60
2019-05-14T17:54:09.250Z,19.60
2019-05-14T17:56:39.109Z,19.60
2019-05-14T17:59:08.695Z,19.60
2019-05-14T18:01:39.313Z,19.60
2019-05-14T18:04:09.183Z,19.50
2019-05-14T18:06:38.715Z,19.50
2019-05-14T18:09:09.204Z,19.40
2019-05-14T18:11:40.095Z,19.40
2019-05-14T18:14:11.838Z,19.40
2019-05-14T18:16:40.979Z,19.40
2019-05-14T18:19:10.474Z,19.40
2019-05-14T18:21:39.990Z,19.30
2019-05-14T18:24:09.454Z,19.30
2019-05-14T18:26:38.938Z,19.30
2019-05-14T18:29:08.850Z,19.20
2019-05-14T18:31:44.359Z,19.10
2019-05-14T18:34:09.642Z,19.10
2019-05-14T18:36:39.633Z,19.00
2019-05-14T18:39:09.505Z,18.90
2019-05-14T18:41:39.208Z,18.80
2019-05-14T18:44:08.886Z,18.80
2019-05-14T18:46:39.356Z,18.80
2019-05-14T18:49:09.138Z,18.80
2019-05-14T18:51:38.796Z,18.80
2019-05-14T18:54:08.272Z,18.80
2019-05-14T18:56:38.435Z,18.70
2019-05-14T18:59:08.881Z,18.70
2019-05-14T19:01:39.671Z,18.60
2019-05-14T19:04:09.439Z,18.50
2019-05-14T19:06:39.086Z,18.40
2019-05-14T19:09:10.719Z,18.20
2019-05-14T19:11:40.633Z,18.10
2019-05-14T19:14:10.142Z,17.90
2019-05-14T19:16:40.098Z,17.80
2019-05-14T19:19:09.554Z,17.70
2019-05-14T19:21:39.059Z,17.50
2019-05-14T19:24:09.113Z,17.40
2019-05-14T19:26:40.455Z,17.30
2019-05-14T19:29:09.833Z,17.20
2019-05-14T19:31:39.350Z,17.10
2019-05-14T19:34:08.822Z,17.00
2019-05-14T19:36:39.916Z,16.90
2019-05-14T19:39:09.774Z,16.80
2019-05-14T19:41:39.327Z,16.70
2019-05-14T19:44:08.902Z,16.60
2019-05-14T19:46:38.747Z,16.60
2019-05-14T19:49:08.368Z,16.50
2019-05-14T19:51:38.707Z,16.40
2019-05-14T19:56:51.341Z,16.20
2019-05-14T19:59:09.037Z,16.20
2019-05-14T20:01:38.858Z,16.10
2019-05-14T20:04:09.606Z,16.00
2019-05-14T20:06:39.207Z,15.90
2019-05-14T20:09:09.557Z,15.80
2019-05-14T20:11:39.912Z,15.80
2019-05-14T20:14:09.650Z,15.70
2019-05-14T20:16:39.448Z,15.60
2019-05-14T20:19:08.974Z,15.60
2019-05-14T20:21:39.173Z,15.50
2019-05-14T20:24:09.048Z,15.40
2019-05-14T20:26:39.166Z,15.40
2019-05-14T20:29:08.983Z,15.30
2019-05-14T20:31:39.079Z,15.30
2019-05-14T20:34:09.065Z,15.20
2019-05-14T20:36:39.214Z,15.10
2019-05-14T20:39:08.859Z,15.10
2019-05-14T20:41:38.669Z,15.00
2019-05-14T20:44:08.171Z,14.90
2019-05-14T20:46:38.240Z,14.90
2019-05-14T20:49:11.017Z,14.80
2019-05-14T20:51:40.521Z,14.80
2019-05-14T20:54:09.980Z,14.70
2019-05-14T20:56:40.322Z,14.60
2019-05-14T20:59:09.932Z,14.60
2019-05-14T21:01:39.436Z,14.50
2019-05-14T21:04:09.163Z,14.50
2019-05-14T21:06:39.184Z,14.40
2019-05-14T21:09:08.723Z,14.30
2019-05-14T21:11:38.628Z,14.30
2019-05-14T21:14:08.916Z,14.20
2019-05-14T21:16:39.228Z,14.20
2019-05-14T21:19:09.193Z,14.10
2019-05-14T21:21:38.682Z,14.10
2019-05-14T21:24:08.875Z,14.00
2019-05-14T21:26:40.080Z,14.00
2019-05-14T21:29:09.826Z,13.90
2019-05-14T21:31:39.282Z,13.90
2019-05-14T21:34:08.929Z,13.80
2019-05-14T21:36:39.091Z,13.70
2019-05-14T21:39:08.815Z,13.70
2019-05-14T21:41:38.821Z,13.60
2019-05-14T21:44:08.699Z,13.60
2019-05-14T21:46:39.782Z,13.50
2019-05-14T21:49:11.005Z,13.50
2019-05-14T21:51:40.800Z,13.40
2019-05-14T21:54:10.295Z,13.30
2019-05-14T21:56:39.874Z,13.20
2019-05-14T21:59:09.735Z,13.20
2019-05-14T22:01:39.703Z,13.00
2019-05-14T22:04:11.679Z,13.00
2019-05-14T22:06:41.201Z,12.90
2019-05-14T22:09:11.564Z,12.80
2019-05-14T22:11:41.194Z,12.70
2019-05-14T22:14:10.926Z,12.60
2019-05-14T22:16:40.938Z,12.60
2019-05-14T22:19:10.511Z,12.50
2019-05-14T22:21:41.868Z,12.40
2019-05-14T22:24:11.213Z,12.40
2019-05-14T22:26:40.673Z,12.30
2019-05-14T22:29:10.194Z,12.20
2019-05-14T22:31:39.692Z,12.20
2019-05-14T22:34:09.197Z,12.10
2019-05-14T22:36:38.970Z,12.00
2019-05-14T22:39:08.661Z,11.90
2019-05-14T22:41:38.461Z,11.80
2019-05-14T22:44:09.514Z,11.80
2019-05-14T22:46:40.397Z,11.70
2019-05-14T22:49:10.050Z,11.70
2019-05-14T22:51:39.590Z,11.60
2019-05-14T22:54:09.083Z,11.60
2019-05-14T22:56:39.112Z,11.50
2019-05-14T22:59:08.641Z,11.50
2019-05-14T23:01:38.825Z,11.40
2019-05-14T23:04:09.046Z,11.40
2019-05-14T23:06:38.903Z,11.30
2019-05-14T23:09:09.050Z,11.30
2019-05-14T23:11:38.903Z,11.20
2019-05-14T23:14:08.355Z,11.20
2019-05-14T23:16:41.700Z,11.20
2019-05-14T23:19:09.114Z,11.10
2019-05-14T23:21:39.178Z,11.10
2019-05-14T23:24:09.348Z,11.10
2019-05-14T23:26:38.960Z,11.10
2019-05-14T23:29:08.502Z,11.00
2019-05-14T23:31:38.637Z,11.00
2019-05-14T23:34:08.364Z,11.00
2019-05-14T23:36:38.900Z,10.90
2019-05-14T23:39:09.089Z,10.90
2019-05-14T23:41:39.041Z,10.90
2019-05-14T23:44:08.596Z,10.90
2019-05-14T23:46:38.150Z,10.90
2019-05-14T23:49:08.912Z,10.90
2019-05-14T23:51:38.725Z,10.90
2019-05-14T23:54:08.933Z,10.90
2019-05-14T23:56:38.658Z,10.80
2019-05-14T23:59:09.281Z,10.80
